Time;durP1;ratioP1;P1;durP2;ratioP2;P2;SDS_P1;SDS_P2;PMS_P1;PMS_P2;Temp;Humidity;BMP_temperature;BMP_pressure;BME280_temperature;BME280_humidity;BME280_pressure;Samples;Min_cycle;Max_cycle;Signal;HPM_P1;HPM_P2
2021/01/13 00:00:20;;;;;;;;;4.00;4.00;;;;;;;;5018237;28;11535;-84
2021/01/13 00:02:47;;;;;;;;;2.00;2.00;;;;;;;;5031508;28;11566;-84
2021/01/13 00:05:14;;;;;;;;;6.50;1.75;;;;;;;;5039825;28;11546;-85
2021/01/13 00:07:41;;;;;;;;;3.00;3.00;;;;;;;;5045182;28;11596;-84
2021/01/13 00:10:10;;;;;;;;;3.00;1.25;;;;;;;;5043836;28;11552;-82
2021/01/13 00:12:37;;;;;;;;;2.00;2.00;;;;;;;;5037134;28;11557;-79
2021/01/13 00:15:05;;;;;;;;;4.00;4.00;;;;;;;;5042130;28;11930;-80
2021/01/13 00:17:33;;;;;;;;;5.50;5.50;;;;;;;;5041405;28;11541;-84
2021/01/13 00:20:00;;;;;;;;;4.00;4.00;;;;;;;;5045499;28;12327;-83
2021/01/13 00:22:27;;;;;;;;;1.00;1.00;;;;;;;;5031481;28;11589;-82
2021/01/13 00:24:53;;;;;;;;;6.50;4.75;;;;;;;;5029351;28;11545;-84
2021/01/13 00:27:22;;;;;;;;;7.25;2.50;;;;;;;;5037084;28;12335;-83
2021/01/13 00:29:51;;;;;;;;;7.25;5.50;;;;;;;;5032931;28;11611;-84
2021/01/13 00:32:20;;;;;;;;;7.75;7.00;;;;;;;;5029317;28;11490;-82
2021/01/13 00:34:48;;;;;;;;;21.50;17.50;;;;;;;;5035190;28;11550;-82
2021/01/13 00:37:15;;;;;;;;;11.25;10.50;;;;;;;;5041386;28;11579;-81
2021/01/13 00:39:42;;;;;;;;;9.00;9.00;;;;;;;;5035266;28;11602;-81
2021/01/13 00:42:10;;;;;;;;;19.50;19.00;;;;;;;;5034118;28;11570;-83
2021/01/13 00:44:37;;;;;;;;;25.33;21.33;;;;;;;;5031954;28;11616;-84
2021/01/13 00:47:03;;;;;;;;;20.25;18.75;;;;;;;;5041211;28;11587;-85
2021/01/13 00:49:31;;;;;;;;;15.50;11.00;;;;;;;;5034420;28;11589;-85
2021/01/13 00:51:58;;;;;;;;;12.75;7.50;;;;;;;;5044011;28;11592;-84
2021/01/13 00:54:25;;;;;;;;;16.25;14.00;;;;;;;;5033287;28;11558;-84
2021/01/13 00:56:52;;;;;;;;;15.50;15.50;;;;;;;;5027837;28;11597;-85
2021/01/13 00:59:19;;;;;;;;;18.00;18.00;;;;;;;;5040177;28;11595;-83
2021/01/13 01:01:46;;;;;;;;;19.25;14.00;;;;;;;;5029669;28;11674;-84
2021/01/13 01:04:13;;;;;;;;;11.00;11.00;;;;;;;;5033233;28;11600;-83
2021/01/13 01:06:40;;;;;;;;;18.25;13.50;;;;;;;;5034627;28;11626;-84
2021/01/13 01:09:08;;;;;;;;;18.50;13.50;;;;;;;;5040279;28;11598;-84
2021/01/13 01:11:38;;;;;;;;;11.75;10.50;;;;;;;;5038293;28;11569;-84
2021/01/13 01:14:07;;;;;;;;;9.50;7.25;;;;;;;;5033539;28;11740;-84
2021/01/13 01:16:35;;;;;;;;;14.25;12.25;;;;;;;;5037253;28;11528;-85
2021/01/13 01:19:03;;;;;;;;;14.50;14.00;;;;;;;;5033025;28;12329;-84
2021/01/13 01:21:29;;;;;;;;;12.25;10.75;;;;;;;;5040850;28;11577;-84
2021/01/13 01:23:57;;;;;;;;;14.00;11.50;;;;;;;;5041672;28;11522;-83
2021/01/13 01:26:24;;;;;;;;;13.50;13.00;;;;;;;;5036821;28;12353;-84
2021/01/13 01:28:51;;;;;;;;;12.50;10.75;;;;;;;;5039459;28;12340;-84
2021/01/13 01:31:19;;;;;;;;;16.75;15.50;;;;;;;;5033671;28;11543;-84
2021/01/13 01:33:46;;;;;;;;;14.75;10.75;;;;;;;;5035953;28;11603;-87
2021/01/13 01:36:16;;;;;;;;;9.75;7.00;;;;;;;;5039930;28;11571;-84
2021/01/13 01:41:28;;;;;;;;;9.25;9.25;;;;;;;;4970247;28;11583;-86
2021/01/13 01:43:55;;;;;;;;;4.75;4.75;;;;;;;;5026460;28;11548;-86
2021/01/13 01:46:24;;;;;;;;;9.25;7.00;;;;;;;;5039906;28;11527;-86
2021/01/13 01:48:56;;;;;;;;;11.00;9.00;;;;;;;;5037054;28;12343;-87
2021/01/13 01:51:24;;;;;;;;;17.50;10.50;;;;;;;;5039623;28;11615;-87
2021/01/13 01:54:04;;;;;;;;;10.50;7.25;;;;;;;;5036972;28;11591;-87
2021/01/13 01:56:37;;;;;;;;;6.00;6.00;;;;;;;;5038596;28;11620;-86
2021/01/13 01:59:06;;;;;;;;;10.25;8.00;;;;;;;;5036203;28;11658;-86
2021/01/13 02:01:38;;;;;;;;;8.75;7.25;;;;;;;;5029357;28;11546;-86
2021/01/13 02:04:16;;;;;;;;;10.00;7.75;;;;;;;;5042187;28;11526;-86
2021/01/13 02:07:29;;;;;;;;;8.75;4.50;;;;;;;;5035870;28;11517;-86
2021/01/13 02:09:57;;;;;;;;;9.75;9.75;;;;;;;;4994297;28;11598;-85
2021/01/13 02:12:30;;;;;;;;;8.00;8.00;;;;;;;;4983804;28;11717;-85
2021/01/13 02:14:59;;;;;;;;;7.75;7.75;;;;;;;;5019661;28;11568;-86
2021/01/13 02:17:32;;;;;;;;;9.75;9.75;;;;;;;;5037413;28;11598;-85
2021/01/13 02:20:16;;;;;;;;;7.00;7.00;;;;;;;;5038783;28;11530;-85
2021/01/13 02:23:01;;;;;;;;;9.00;8.00;;;;;;;;5031619;28;11544;-85
2021/01/13 02:26:12;;;;;;;;;8.75;7.75;;;;;;;;5024746;28;11561;-85
2021/01/13 02:28:55;;;;;;;;;5.00;4.25;;;;;;;;5034753;28;11578;-84
2021/01/13 02:31:32;;;;;;;;;7.25;7.25;;;;;;;;5039601;28;11481;-84
2021/01/13 02:34:08;;;;;;;;;12.75;8.75;;;;;;;;5034514;28;11513;-85
2021/01/13 02:37:05;;;;;;;;;9.00;9.00;;;;;;;;5036035;28;11573;-86
2021/01/13 02:39:34;;;;;;;;;8.00;8.00;;;;;;;;5034305;28;11605;-86
2021/01/13 02:42:02;;;;;;;;;10.00;8.00;;;;;;;;5032010;28;11549;-84
2021/01/13 02:44:30;;;;;;;;;11.75;10.25;;;;;;;;5039065;28;11543;-86
2021/01/13 02:47:12;;;;;;;;;8.25;5.00;;;;;;;;5037148;28;11895;-86
2021/01/13 02:53:47;;;;;;;;;12.25;12.25;;;;;;;;5046349;28;11533;-87
2021/01/13 02:56:24;;;;;;;;;10.50;10.50;;;;;;;;5030670;28;11586;-89
2021/01/13 02:58:59;;;;;;;;;18.50;14.25;;;;;;;;5037502;28;11587;-89
2021/01/13 03:01:27;;;;;;;;;11.00;11.00;;;;;;;;5043985;28;12318;-85
2021/01/13 03:03:57;;;;;;;;;14.00;14.00;;;;;;;;5039238;28;11590;-86
2021/01/13 03:06:29;;;;;;;;;16.25;16.25;;;;;;;;5036676;28;11603;-85
2021/01/13 03:09:02;;;;;;;;;11.00;11.00;;;;;;;;5033784;28;11622;-84
2021/01/13 03:11:30;;;;;;;;;17.25;16.75;;;;;;;;5033351;28;11620;-84
2021/01/13 03:14:05;;;;;;;;;16.75;14.25;;;;;;;;5035514;28;11572;-86
2021/01/13 03:16:35;;;;;;;;;12.25;12.25;;;;;;;;5033503;28;11592;-84
2021/01/13 03:19:04;;;;;;;;;12.25;12.25;;;;;;;;5033200;28;11576;-83
2021/01/13 03:21:40;;;;;;;;;20.50;18.25;;;;;;;;5036254;28;11600;-83
2021/01/13 03:24:15;;;;;;;;;22.25;17.75;;;;;;;;5026256;28;11575;-85
2021/01/13 03:26:47;;;;;;;;;18.50;17.50;;;;;;;;5027203;28;11590;-86
2021/01/13 03:29:19;;;;;;;;;16.50;13.75;;;;;;;;5033911;28;11616;-83
2021/01/13 03:32:01;;;;;;;;;18.00;18.00;;;;;;;;5040286;28;11535;-83
2021/01/13 03:34:30;;;;;;;;;15.50;14.25;;;;;;;;5032742;28;11591;-83
2021/01/13 03:37:09;;;;;;;;;21.00;18.00;;;;;;;;5036302;28;11585;-85
2021/01/13 03:39:38;;;;;;;;;14.50;14.00;;;;;;;;5036249;28;11633;-83
2021/01/13 03:42:08;;;;;;;;;17.75;17.75;;;;;;;;5030662;28;11601;-86
2021/01/13 03:44:37;;;;;;;;;17.50;17.50;;;;;;;;5041687;28;11683;-85
2021/01/13 03:47:46;;;;;;;;;25.50;23.75;;;;;;;;5032299;28;11601;-85
2021/01/13 03:50:21;;;;;;;;;37.75;35.25;;;;;;;;5036089;28;11568;-85
2021/01/13 03:52:59;;;;;;;;;37.25;35.75;;;;;;;;5034439;28;11611;-85
2021/01/13 03:55:28;;;;;;;;;34.00;34.00;;;;;;;;5041661;28;11653;-87
2021/01/13 03:58:39;;;;;;;;;40.75;32.00;;;;;;;;5032876;28;11596;-85
2021/01/13 04:01:32;;;;;;;;;26.75;26.75;;;;;;;;5026178;28;11593;-84
2021/01/13 04:04:08;;;;;;;;;38.75;35.50;;;;;;;;5036378;28;11611;-83
2021/01/13 04:06:42;;;;;;;;;38.75;33.50;;;;;;;;5024350;28;11629;-83
2021/01/13 04:09:11;;;;;;;;;56.33;50.33;;;;;;;;5036136;28;12360;-85
2021/01/13 04:11:43;;;;;;;;;40.50;37.50;;;;;;;;5037580;28;8856;-85
2021/01/13 04:14:11;;;;;;;;;34.00;34.00;;;;;;;;5033439;28;11611;-84
2021/01/13 04:16:39;;;;;;;;;33.75;29.50;;;;;;;;5032168;28;11595;-82
2021/01/13 04:19:08;;;;;;;;;22.50;20.25;;;;;;;;5028307;28;11609;-83
2021/01/13 04:21:36;;;;;;;;;28.25;26.25;;;;;;;;5028588;28;11616;-80
2021/01/13 04:24:04;;;;;;;;;32.00;29.75;;;;;;;;5037237;28;12330;-81
2021/01/13 04:26:35;;;;;;;;;24.50;22.25;;;;;;;;5028290;28;11645;-82
2021/01/13 04:29:02;;;;;;;;;36.75;33.50;;;;;;;;5027238;28;11667;-84
2021/01/13 04:31:30;;;;;;;;;34.50;33.75;;;;;;;;5041270;28;11579;-81
2021/01/13 04:33:57;;;;;;;;;37.25;29.50;;;;;;;;5033915;28;11588;-82
2021/01/13 04:36:29;;;;;;;;;25.75;21.50;;;;;;;;5039479;28;11566;-82
2021/01/13 04:39:01;;;;;;;;;26.50;22.00;;;;;;;;5037558;28;11610;-83
2021/01/13 04:41:30;;;;;;;;;37.50;30.75;;;;;;;;5046303;28;11588;-83
2021/01/13 04:43:58;;;;;;;;;34.25;28.00;;;;;;;;5035354;28;11632;-82
2021/01/13 04:46:31;;;;;;;;;22.50;15.00;;;;;;;;5037849;28;12171;-83
2021/01/13 04:49:08;;;;;;;;;34.00;31.75;;;;;;;;5042824;28;11667;-83
2021/01/13 04:51:37;;;;;;;;;34.25;28.75;;;;;;;;5036897;28;11638;-83
2021/01/13 04:54:07;;;;;;;;;33.00;27.00;;;;;;;;5037983;28;12376;-82
2021/01/13 04:56:52;;;;;;;;;29.25;25.50;;;;;;;;5037445;28;11610;-80
2021/01/13 04:59:50;;;;;;;;;28.75;28.75;;;;;;;;5045153;28;11601;-82
2021/01/13 05:02:18;;;;;;;;;25.25;22.25;;;;;;;;5035817;28;11593;-83
2021/01/13 05:04:59;;;;;;;;;24.00;20.50;;;;;;;;5036324;28;11621;-80
2021/01/13 05:07:31;;;;;;;;;32.00;28.50;;;;;;;;5037211;28;11560;-79
2021/01/13 05:10:09;;;;;;;;;36.25;32.00;;;;;;;;5039597;28;11590;-82
2021/01/13 05:12:48;;;;;;;;;29.50;25.50;;;;;;;;5042081;28;11620;-82
2021/01/13 05:15:16;;;;;;;;;24.75;23.25;;;;;;;;5032455;28;11936;-84
2021/01/13 05:17:59;;;;;;;;;28.25;26.00;;;;;;;;5047458;28;12381;-80
2021/01/13 05:20:27;;;;;;;;;37.50;32.50;;;;;;;;5044921;28;12328;-79
2021/01/13 05:22:56;;;;;;;;;33.25;32.00;;;;;;;;5040974;28;11564;-82
2021/01/13 05:25:46;;;;;;;;;43.50;37.25;;;;;;;;5040260;28;11668;-80
2021/01/13 05:28:15;;;;;;;;;45.00;37.00;;;;;;;;5041186;28;11688;-80
2021/01/13 05:30:44;;;;;;;;;38.00;31.75;;;;;;;;5041312;28;11676;-80
2021/01/13 05:33:14;;;;;;;;;31.25;27.50;;;;;;;;5042864;28;12326;-84
2021/01/13 05:35:43;;;;;;;;;32.25;30.25;;;;;;;;5044563;28;12338;-79
2021/01/13 05:38:16;;;;;;;;;28.75;24.00;;;;;;;;5039573;28;11572;-79
2021/01/13 05:40:52;;;;;;;;;27.75;27.75;;;;;;;;5034225;28;11599;-79
2021/01/13 05:43:20;;;;;;;;;22.50;21.00;;;;;;;;5035638;28;11642;-79
2021/01/13 05:45:49;;;;;;;;;32.25;25.75;;;;;;;;5037201;28;11582;-80
2021/01/13 05:48:21;;;;;;;;;19.00;19.00;;;;;;;;5044539;28;11608;-79
2021/01/13 05:50:51;;;;;;;;;30.75;26.75;;;;;;;;5034993;28;11568;-80
2021/01/13 05:53:23;;;;;;;;;37.50;36.00;;;;;;;;5039119;28;11658;-79
2021/01/13 05:55:52;;;;;;;;;22.00;18.00;;;;;;;;5043805;28;11681;-80
2021/01/13 05:58:24;;;;;;;;;30.50;28.00;;;;;;;;5044327;28;11587;-83
2021/01/13 06:00:53;;;;;;;;;24.50;24.00;;;;;;;;5043900;28;11525;-82
2021/01/13 06:03:23;;;;;;;;;27.50;27.50;;;;;;;;5043589;28;12398;-83
2021/01/13 06:05:55;;;;;;;;;18.50;18.50;;;;;;;;5041673;28;11603;-83
2021/01/13 06:08:27;;;;;;;;;43.50;42.25;;;;;;;;5038555;28;11575;-81
2021/01/13 06:10:59;;;;;;;;;61.00;45.00;;;;;;;;5033672;28;11605;-82
2021/01/13 06:13:32;;;;;;;;;38.25;38.25;;;;;;;;5038066;28;11748;-85
2021/01/13 06:16:02;;;;;;;;;61.75;45.50;;;;;;;;5032631;28;11749;-85
2021/01/13 06:18:30;;;;;;;;;44.00;34.25;;;;;;;;5040208;28;11593;-80
2021/01/13 06:20:58;;;;;;;;;53.67;45.00;;;;;;;;5030341;28;11651;-84
2021/01/13 06:23:29;;;;;;;;;58.67;47.00;;;;;;;;5032376;28;12349;-84
2021/01/13 06:25:57;;;;;;;;;59.67;47.67;;;;;;;;5041112;28;11618;-81
2021/01/13 06:28:43;;;;;;;;;74.67;61.00;;;;;;;;5038838;28;11620;-84
2021/01/13 06:31:10;;;;;;;;;65.33;51.00;;;;;;;;5032518;28;8774;-86
2021/01/13 06:33:58;;;;;;;;;41.33;36.33;;;;;;;;5032284;28;8861;-87
2021/01/13 06:36:32;;;;;;;;;44.75;36.75;;;;;;;;5033725;28;11629;-82
2021/01/13 06:39:01;;;;;;;;;50.67;43.33;;;;;;;;5043289;28;11656;-83
2021/01/13 06:41:29;;;;;;;;;55.67;47.33;;;;;;;;5043264;28;11592;-86
2021/01/13 06:44:04;;;;;;;;;47.67;43.67;;;;;;;;5043938;28;11612;-83
2021/01/13 06:46:32;;;;;;;;;49.33;42.00;;;;;;;;5031166;28;11609;-82
2021/01/13 06:49:13;;;;;;;;;44.00;41.75;;;;;;;;5040972;28;13242;-82
2021/01/13 06:51:45;;;;;;;;;43.75;38.00;;;;;;;;5041570;28;11624;-83
2021/01/13 06:54:17;;;;;;;;;43.67;42.00;;;;;;;;5030046;28;11607;-84
2021/01/13 06:56:49;;;;;;;;;40.67;40.67;;;;;;;;5035694;28;11639;-82
2021/01/13 06:59:17;;;;;;;;;39.50;39.25;;;;;;;;5040395;28;11610;-83
2021/01/13 07:01:51;;;;;;;;;48.67;42.00;;;;;;;;5037173;28;11546;-80
2021/01/13 07:04:19;;;;;;;;;50.33;45.67;;;;;;;;5037175;28;11641;-80
2021/01/13 07:07:02;;;;;;;;;54.00;45.00;;;;;;;;5039128;28;11605;-85
2021/01/13 07:09:34;;;;;;;;;48.50;42.00;;;;;;;;5039205;28;11598;-83
2021/01/13 07:12:08;;;;;;;;;40.00;40.00;;;;;;;;5031997;28;12494;-80
2021/01/13 07:14:38;;;;;;;;;67.33;53.33;;;;;;;;5040341;28;11621;-80
2021/01/13 07:17:07;;;;;;;;;65.67;51.67;;;;;;;;5042000;28;11615;-80
2021/01/13 07:19:36;;;;;;;;;65.67;55.67;;;;;;;;5040355;28;11586;-84
2021/01/13 07:22:05;;;;;;;;;66.33;54.00;;;;;;;;5028567;28;8854;-83
2021/01/13 07:24:32;;;;;;;;;70.33;53.33;;;;;;;;5024837;28;8906;-73
2021/01/13 07:26:59;;;;;;;;;46.00;43.75;;;;;;;;5028386;28;11605;-73
2021/01/13 07:29:27;;;;;;;;;44.75;37.00;;;;;;;;5030684;28;11641;-73
2021/01/13 07:31:57;;;;;;;;;38.50;33.25;;;;;;;;5040137;28;11577;-73
2021/01/13 07:34:30;;;;;;;;;50.50;43.75;;;;;;;;5037114;28;11621;-74
2021/01/13 07:37:01;;;;;;;;;42.00;40.50;;;;;;;;5023932;28;11593;-74
2021/01/13 07:39:40;;;;;;;;;49.50;42.25;;;;;;;;5025869;28;11620;-73
2021/01/13 07:42:34;;;;;;;;;37.25;37.25;;;;;;;;5039794;28;11647;-73
2021/01/13 07:45:06;;;;;;;;;41.00;39.50;;;;;;;;5034981;28;11585;-72
2021/01/13 07:48:11;;;;;;;;;69.67;56.00;;;;;;;;5032682;28;11656;-72
2021/01/13 07:50:41;;;;;;;;;66.00;53.00;;;;;;;;5036066;28;11712;-73
2021/01/13 07:53:11;;;;;;;;;66.50;47.00;;;;;;;;5033362;28;8876;-73
2021/01/13 07:55:43;;;;;;;;;63.67;52.33;;;;;;;;5032182;28;12382;-72
2021/01/13 07:58:20;;;;;;;;;60.67;52.00;;;;;;;;5031415;28;11607;-72
2021/01/13 08:00:59;;;;;;;;;60.75;45.25;;;;;;;;5033224;28;12311;-72
2021/01/13 08:03:58;;;;;;;;;62.50;49.00;;;;;;;;5027803;28;11663;-72
2021/01/13 08:06:35;;;;;;;;;66.50;54.25;;;;;;;;5030512;28;12532;-72
2021/01/13 08:09:16;;;;;;;;;59.00;48.75;;;;;;;;5039307;28;11621;-73
2021/01/13 08:12:21;;;;;;;;;38.50;36.50;;;;;;;;5042509;28;11642;-72
2021/01/13 08:15:35;;;;;;;;;39.50;39.00;;;;;;;;5008419;28;11640;-72
2021/01/13 08:18:47;;;;;;;;;40.00;34.50;;;;;;;;5016866;28;11593;-72
2021/01/13 08:21:16;;;;;;;;;44.00;38.00;;;;;;;;5031908;28;11611;-73
2021/01/13 08:23:49;;;;;;;;;49.25;41.50;;;;;;;;5032018;28;11589;-73
2021/01/13 08:26:16;;;;;;;;;50.75;45.00;;;;;;;;5033101;28;11753;-73
2021/01/13 08:28:47;;;;;;;;;53.00;44.00;;;;;;;;5035263;28;11609;-73
2021/01/13 08:31:20;;;;;;;;;60.50;47.25;;;;;;;;5039246;28;12380;-73
2021/01/13 08:33:49;;;;;;;;;51.00;45.00;;;;;;;;5036823;28;11573;-73
2021/01/13 08:36:16;;;;;;;;;42.50;38.00;;;;;;;;5037416;28;11741;-73
2021/01/13 08:39:05;;;;;;;;;42.50;36.75;;;;;;;;5040997;28;12175;-73
2021/01/13 08:41:33;;;;;;;;;20.00;20.00;;;;;;;;5026861;28;11605;-73
2021/01/13 08:44:06;;;;;;;;;29.00;29.00;;;;;;;;5037204;28;11592;-72
2021/01/13 08:46:48;;;;;;;;;50.25;41.00;;;;;;;;5037720;28;11620;-71
2021/01/13 08:49:24;;;;;;;;;55.75;46.75;;;;;;;;5035873;28;11593;-71
2021/01/13 08:52:12;;;;;;;;;58.25;44.00;;;;;;;;5033529;28;11607;-72
2021/01/13 08:54:39;;;;;;;;;40.25;39.75;;;;;;;;5038754;28;11646;-71
2021/01/13 08:57:16;;;;;;;;;48.50;41.25;;;;;;;;5032912;28;11713;-71
2021/01/13 08:59:45;;;;;;;;;50.75;44.00;;;;;;;;5036832;28;11618;-72
2021/01/13 09:02:14;;;;;;;;;49.50;44.25;;;;;;;;5027287;28;11585;-72
2021/01/13 09:04:48;;;;;;;;;58.75;42.50;;;;;;;;5034516;28;11624;-71
2021/01/13 09:07:16;;;;;;;;;49.00;45.00;;;;;;;;5032749;28;11639;-70
2021/01/13 09:09:54;;;;;;;;;46.25;41.25;;;;;;;;5036347;28;11611;-70
2021/01/13 09:12:37;;;;;;;;;51.75;43.75;;;;;;;;5032035;28;11699;-71
2021/01/13 09:15:26;;;;;;;;;58.50;44.25;;;;;;;;5040131;28;11681;-71
2021/01/13 09:17:58;;;;;;;;;53.75;45.50;;;;;;;;5028638;28;11630;-70
2021/01/13 09:20:30;;;;;;;;;42.25;35.25;;;;;;;;5041174;28;11610;-71
2021/01/13 09:22:59;;;;;;;;;26.50;25.25;;;;;;;;5032458;28;11636;-71
2021/01/13 09:25:27;;;;;;;;;25.75;23.75;;;;;;;;5040062;28;11605;-71
2021/01/13 09:27:56;;;;;;;;;16.75;16.75;;;;;;;;5040758;28;11620;-70
2021/01/13 09:30:36;;;;;;;;;22.00;20.00;;;;;;;;5030325;28;11634;-73
2021/01/13 09:33:09;;;;;;;;;12.25;11.75;;;;;;;;5032438;28;11720;-71
2021/01/13 09:35:38;;;;;;;;;20.75;19.75;;;;;;;;5040413;28;11572;-71
2021/01/13 09:38:08;;;;;;;;;33.50;29.50;;;;;;;;5034322;28;11691;-72
2021/01/13 09:40:54;;;;;;;;;25.75;19.25;;;;;;;;5033579;28;12354;-72
2021/01/13 09:43:31;;;;;;;;;20.75;16.25;;;;;;;;5038968;28;11729;-73
2021/01/13 09:46:01;;;;;;;;;18.75;17.25;;;;;;;;5031390;28;11611;-71
2021/01/13 09:48:29;;;;;;;;;21.75;19.25;;;;;;;;5034666;28;11639;-71
2021/01/13 09:51:01;;;;;;;;;19.00;16.25;;;;;;;;5034319;28;11607;-72
2021/01/13 09:53:30;;;;;;;;;24.25;21.25;;;;;;;;5033762;28;11607;-71
2021/01/13 09:56:08;;;;;;;;;20.00;18.00;;;;;;;;5040448;28;11591;-71
2021/01/13 09:58:44;;;;;;;;;16.75;15.50;;;;;;;;5037527;28;11613;-72
2021/01/13 10:01:14;;;;;;;;;11.25;9.75;;;;;;;;5035683;28;11566;-71
2021/01/13 10:03:43;;;;;;;;;15.75;15.25;;;;;;;;5028465;28;11656;-71
2021/01/13 10:06:28;;;;;;;;;15.00;15.00;;;;;;;;5043281;28;11687;-71
2021/01/13 10:08:56;;;;;;;;;17.75;15.50;;;;;;;;5034028;28;11565;-71
2021/01/13 10:11:25;;;;;;;;;9.50;9.25;;;;;;;;5033711;28;11706;-71
2021/01/13 10:13:58;;;;;;;;;15.25;15.25;;;;;;;;5032602;28;11581;-70
2021/01/13 10:16:27;;;;;;;;;18.00;17.50;;;;;;;;5024546;28;12528;-70
2021/01/13 10:18:56;;;;;;;;;20.75;17.75;;;;;;;;5032969;28;11586;-71
2021/01/13 10:21:24;;;;;;;;;30.75;26.00;;;;;;;;5025615;28;12374;-70
2021/01/13 10:23:52;;;;;;;;;42.25;37.50;;;;;;;;5028992;28;11624;-69
2021/01/13 10:26:19;;;;;;;;;34.25;29.75;;;;;;;;5036168;28;11609;-72
2021/01/13 10:28:47;;;;;;;;;129.00;106.33;;;;;;;;5037988;28;11630;-72
2021/01/13 10:31:24;;;;;;;;;127.33;113.67;;;;;;;;5027742;28;8902;-71
2021/01/13 10:33:53;;;;;;;;;61.75;51.75;;;;;;;;5033159;28;9335;-72
2021/01/13 10:36:54;;;;;;;;;45.50;42.00;;;;;;;;5028336;28;11640;-72
2021/01/13 10:39:24;;;;;;;;;42.50;38.75;;;;;;;;5002312;28;11561;-72
2021/01/13 10:41:53;;;;;;;;;43.75;38.75;;;;;;;;5001183;28;11540;-72
2021/01/13 10:44:21;;;;;;;;;30.50;28.25;;;;;;;;5017017;28;11801;-71
2021/01/13 10:46:56;;;;;;;;;18.00;18.00;;;;;;;;5053781;28;11590;-72
2021/01/13 10:49:34;;;;;;;;;17.75;17.75;;;;;;;;5046598;28;11570;-72
2021/01/13 10:52:03;;;;;;;;;17.75;17.75;;;;;;;;5045040;28;11556;-71
2021/01/13 10:54:31;;;;;;;;;13.75;11.50;;;;;;;;5043971;28;11529;-72
2021/01/13 10:57:01;;;;;;;;;16.50;14.00;;;;;;;;5038980;28;11508;-72
2021/01/13 10:59:29;;;;;;;;;17.25;17.25;;;;;;;;5041215;28;11501;-71
2021/01/13 11:02:01;;;;;;;;;13.50;11.00;;;;;;;;5043521;28;11495;-72
2021/01/13 11:04:34;;;;;;;;;14.00;14.00;;;;;;;;5033666;28;11542;-73
2021/01/13 11:07:03;;;;;;;;;12.50;12.50;;;;;;;;5033374;28;11535;-75
2021/01/13 11:09:31;;;;;;;;;16.00;11.00;;;;;;;;5032356;28;11497;-75
2021/01/13 11:11:58;;;;;;;;;14.00;14.00;;;;;;;;5032159;28;11623;-71
2021/01/13 11:14:46;;;;;;;;;13.25;13.25;;;;;;;;5039400;28;11491;-74
2021/01/13 11:17:15;;;;;;;;;10.00;10.00;;;;;;;;5037083;28;12481;-72
2021/01/13 11:19:44;;;;;;;;;12.75;12.75;;;;;;;;5042770;28;11491;-72
2021/01/13 11:22:12;;;;;;;;;14.50;11.00;;;;;;;;5038360;28;11491;-72
2021/01/13 11:24:41;;;;;;;;;11.00;11.00;;;;;;;;5041569;28;11504;-74
2021/01/13 11:27:11;;;;;;;;;12.00;11.50;;;;;;;;5043894;28;11533;-73
2021/01/13 11:29:40;;;;;;;;;12.75;10.00;;;;;;;;5043072;28;11492;-73
2021/01/13 11:32:10;;;;;;;;;10.50;10.50;;;;;;;;5042868;28;12248;-72
2021/01/13 11:34:37;;;;;;;;;15.75;13.00;;;;;;;;5042235;28;13143;-72
2021/01/13 11:37:21;;;;;;;;;13.00;11.00;;;;;;;;5039295;28;11523;-72
2021/01/13 11:39:56;;;;;;;;;13.25;10.00;;;;;;;;5033867;28;11481;-72
2021/01/13 11:42:35;;;;;;;;;13.25;13.25;;;;;;;;5028855;28;11505;-72
2021/01/13 11:45:13;;;;;;;;;11.25;11.25;;;;;;;;5042003;28;11587;-70
2021/01/13 11:47:43;;;;;;;;;18.25;16.25;;;;;;;;5042511;28;11509;-71
2021/01/13 11:50:14;;;;;;;;;13.75;13.75;;;;;;;;5030842;28;11541;-72
2021/01/13 11:52:45;;;;;;;;;17.50;15.00;;;;;;;;5039598;28;12337;-73
2021/01/13 11:55:13;;;;;;;;;14.75;13.25;;;;;;;;5043874;28;11533;-73
2021/01/13 11:57:44;;;;;;;;;14.25;14.25;;;;;;;;5047493;28;11679;-73
2021/01/13 12:00:16;;;;;;;;;16.25;15.75;;;;;;;;5043294;28;11655;-73
2021/01/13 12:02:48;;;;;;;;;13.75;12.75;;;;;;;;5040114;28;11581;-71
2021/01/13 12:05:29;;;;;;;;;15.25;15.25;;;;;;;;5039676;28;11528;-72
2021/01/13 12:08:01;;;;;;;;;11.00;11.00;;;;;;;;5031480;28;11549;-72
2021/01/13 12:10:32;;;;;;;;;16.00;15.25;;;;;;;;5029163;28;12294;-72
2021/01/13 12:13:13;;;;;;;;;15.50;15.50;;;;;;;;5039148;28;11594;-72
2021/01/13 12:15:51;;;;;;;;;15.00;13.50;;;;;;;;5028175;28;11538;-73
2021/01/13 12:18:22;;;;;;;;;13.50;13.50;;;;;;;;5039915;28;11309;-72
2021/01/13 12:20:50;;;;;;;;;16.50;16.50;;;;;;;;5031186;28;11171;-73
2021/01/13 12:23:31;;;;;;;;;14.50;14.00;;;;;;;;5044594;28;11525;-72
2021/01/13 12:26:20;;;;;;;;;14.25;12.00;;;;;;;;5038606;28;11207;-72
2021/01/13 12:28:49;;;;;;;;;16.00;14.25;;;;;;;;5033491;28;11310;-72
2021/01/13 12:31:16;;;;;;;;;16.00;13.75;;;;;;;;5034066;28;11010;-72
2021/01/13 12:33:50;;;;;;;;;13.50;11.25;;;;;;;;5036646;28;11276;-72
2021/01/13 12:36:19;;;;;;;;;16.25;15.50;;;;;;;;5036499;28;11119;-73
2021/01/13 12:38:47;;;;;;;;;15.25;14.00;;;;;;;;5032052;28;11149;-74
2021/01/13 12:41:22;;;;;;;;;6.25;6.25;;;;;;;;5042208;28;11147;-73
2021/01/13 12:43:49;;;;;;;;;15.75;15.25;;;;;;;;5030178;28;11104;-73
2021/01/13 12:46:29;;;;;;;;;11.75;11.75;;;;;;;;5041303;28;10969;-74
2021/01/13 12:48:56;;;;;;;;;11.25;11.25;;;;;;;;5039244;28;10917;-74
2021/01/13 12:51:24;;;;;;;;;10.00;7.50;;;;;;;;5032077;28;10939;-75
2021/01/13 12:53:55;;;;;;;;;11.00;11.00;;;;;;;;5040185;28;10893;-71
2021/01/13 12:56:26;;;;;;;;;12.25;12.00;;;;;;;;5026623;28;10892;-71
2021/01/13 12:58:53;;;;;;;;;10.00;10.00;;;;;;;;5041399;28;10935;-74
2021/01/13 13:01:21;;;;;;;;;12.25;8.50;;;;;;;;5038320;28;10901;-72
2021/01/13 13:03:48;;;;;;;;;11.00;11.00;;;;;;;;5040828;28;10839;-73
2021/01/13 13:06:23;;;;;;;;;9.25;9.25;;;;;;;;5031834;28;10641;-73
2021/01/13 13:08:51;;;;;;;;;10.75;10.75;;;;;;;;5036001;28;10714;-73
2021/01/13 13:11:18;;;;;;;;;7.75;7.75;;;;;;;;5032276;28;10779;-74
2021/01/13 13:13:45;;;;;;;;;8.00;8.00;;;;;;;;5040843;28;10614;-73
2021/01/13 13:16:12;;;;;;;;;10.50;10.00;;;;;;;;5036493;28;10561;-77
2021/01/13 13:18:39;;;;;;;;;7.25;6.75;;;;;;;;5041170;28;10462;-73
2021/01/13 13:21:09;;;;;;;;;6.00;6.00;;;;;;;;5039139;28;10397;-73
2021/01/13 13:23:37;;;;;;;;;7.00;7.00;;;;;;;;5040025;28;10490;-73
2021/01/13 13:26:04;;;;;;;;;6.00;6.00;;;;;;;;5040225;28;10958;-73
2021/01/13 13:28:32;;;;;;;;;6.50;6.00;;;;;;;;5040891;28;10426;-73
2021/01/13 13:30:59;;;;;;;;;4.50;4.50;;;;;;;;5033654;28;10236;-74
2021/01/13 13:33:26;;;;;;;;;6.00;6.00;;;;;;;;5039542;28;10350;-75
2021/01/13 13:35:54;;;;;;;;;4.25;4.25;;;;;;;;5032184;28;10267;-74
2021/01/13 13:38:21;;;;;;;;;3.75;3.75;;;;;;;;5028133;28;10405;-73
2021/01/13 13:40:48;;;;;;;;;4.25;4.25;;;;;;;;5038904;28;11216;-73
2021/01/13 13:43:15;;;;;;;;;7.00;6.50;;;;;;;;5025330;28;10190;-73
2021/01/13 13:45:43;;;;;;;;;3.00;3.00;;;;;;;;5034756;28;10171;-74
2021/01/13 13:48:10;;;;;;;;;2.75;2.75;;;;;;;;5037258;28;9978;-73
2021/01/13 13:50:37;;;;;;;;;5.75;5.75;;;;;;;;5036949;28;9935;-72
2021/01/13 13:53:05;;;;;;;;;2.50;2.50;;;;;;;;5036415;28;10146;-72
2021/01/13 13:55:34;;;;;;;;;5.25;2.00;;;;;;;;5031220;28;10078;-73
2021/01/13 13:58:01;;;;;;;;;1.00;1.00;;;;;;;;5038087;28;10089;-72
2021/01/13 14:00:28;;;;;;;;;1.75;1.75;;;;;;;;5037297;28;9924;-72
2021/01/13 14:02:56;;;;;;;;;1.00;1.00;;;;;;;;5035436;28;10004;-72
2021/01/13 14:05:23;;;;;;;;;3.00;1.00;;;;;;;;5042348;28;9952;-73
2021/01/13 14:07:50;;;;;;;;;2.00;2.00;;;;;;;;5035329;28;9870;-72
2021/01/13 14:10:17;;;;;;;;;2.00;2.00;;;;;;;;5031112;28;10086;-72
2021/01/13 14:12:47;;;;;;;;;2.00;2.00;;;;;;;;5030873;28;10819;-72
2021/01/13 14:15:14;;;;;;;;;1.75;1.75;;;;;;;;5031104;28;10197;-72
2021/01/13 14:17:41;;;;;;;;;3.00;3.00;;;;;;;;5029623;28;10255;-72
2021/01/13 14:20:10;;;;;;;;;3.00;3.00;;;;;;;;5033477;28;10141;-72
2021/01/13 14:22:39;;;;;;;;;4.25;4.25;;;;;;;;5031669;28;10219;-71
2021/01/13 14:25:07;;;;;;;;;6.00;6.00;;;;;;;;5031910;28;10119;-70
2021/01/13 14:27:34;;;;;;;;;3.00;3.00;;;;;;;;5034799;28;10248;-72
2021/01/13 14:30:01;;;;;;;;;4.00;4.00;;;;;;;;5032046;28;10326;-71
2021/01/13 14:32:27;;;;;;;;;5.00;5.00;;;;;;;;5032974;28;10124;-72
2021/01/13 14:34:54;;;;;;;;;4.00;4.00;;;;;;;;5034822;28;10297;-72
2021/01/13 14:37:22;;;;;;;;;4.00;4.00;;;;;;;;5034831;28;10361;-72
2021/01/13 14:39:49;;;;;;;;;4.00;2.00;;;;;;;;5036627;28;10134;-71
2021/01/13 14:42:17;;;;;;;;;6.00;4.25;;;;;;;;5039875;28;10347;-73
2021/01/13 14:44:44;;;;;;;;;3.00;3.00;;;;;;;;5032541;28;10319;-72
2021/01/13 14:47:12;;;;;;;;;4.25;4.25;;;;;;;;5035960;28;10195;-73
2021/01/13 14:49:39;;;;;;;;;7.25;7.25;;;;;;;;5032495;28;11010;-72
2021/01/13 14:52:06;;;;;;;;;5.00;5.00;;;;;;;;5040223;28;10350;-72
2021/01/13 14:54:34;;;;;;;;;3.75;3.75;;;;;;;;5031265;28;10350;-72
2021/01/13 14:57:05;;;;;;;;;4.25;4.25;;;;;;;;5033318;28;10995;-73
2021/01/13 14:59:32;;;;;;;;;6.50;6.50;;;;;;;;5027862;28;10264;-72